Time;durP1;ratioP1;P1;durP2;ratioP2;P2;SDS_P1;SDS_P2;PMS_P1;PMS_P2;Temp;Humidity;BMP_temperature;BMP_pressure;BME280_temperature;BME280_humidity;BME280_pressure;Samples;Min_cycle;Max_cycle;Signal;HPM_P1;HPM_P2
2022/08/31 00:04:01;;;;;;;7.13;2.40;;;;;;;;;;5070970;28;20031;-66
2022/08/31 00:06:27;;;;;;;5.95;2.75;;;;;;;;;;5070073;28;20086;-66
2022/08/31 00:08:52;;;;;;;6.20;2.40;;;;;;;;;;5070730;28;20024;-66
2022/08/31 00:11:26;;;;;;;10.43;2.70;;;;;;;;;;5070670;28;20484;-66
2022/08/31 00:13:52;;;;;;;6.85;2.83;;;;;;;;;;5070196;28;20654;-66
2022/08/31 00:16:17;;;;;;;6.20;3.13;;;;;;;;;;5070089;28;20008;-66
2022/08/31 00:18:42;;;;;;;5.03;2.30;;;;;;;;;;5070219;28;20048;-68
2022/08/31 00:21:07;;;;;;;5.05;2.28;;;;;;;;;;5070554;28;20465;-66
2022/08/31 00:23:33;;;;;;;6.37;2.07;;;;;;;;;;5070366;28;20465;-66
2022/08/31 00:25:58;;;;;;;4.60;2.13;;;;;;;;;;5070053;28;20262;-66
2022/08/31 00:28:23;;;;;;;4.32;2.03;;;;;;;;;;5070125;28;20060;-69
2022/08/31 00:30:49;;;;;;;6.07;2.67;;;;;;;;;;5070005;28;20427;-66
2022/08/31 00:33:14;;;;;;;4.13;2.25;;;;;;;;;;5070323;28;20338;-67
2022/08/31 00:35:42;;;;;;;3.85;1.98;;;;;;;;;;5069833;28;20027;-66
2022/08/31 00:38:08;;;;;;;7.35;2.17;;;;;;;;;;5070100;28;20074;-67
2022/08/31 00:40:34;;;;;;;6.13;2.35;;;;;;;;;;5069897;28;20038;-67
2022/08/31 00:42:59;;;;;;;5.05;2.22;;;;;;;;;;5070251;28;20024;-67
2022/08/31 00:45:25;;;;;;;5.65;2.30;;;;;;;;;;5069905;28;20031;-70
2022/08/31 00:47:50;;;;;;;5.57;2.85;;;;;;;;;;5069940;28;20021;-66
2022/08/31 00:50:17;;;;;;;4.30;2.00;;;;;;;;;;5070135;28;20027;-69
2022/08/31 00:52:44;;;;;;;7.97;2.58;;;;;;;;;;5069892;28;20134;-66
2022/08/31 00:55:15;;;;;;;2.88;1.92;;;;;;;;;;5069250;28;20012;-68
2022/08/31 00:57:41;;;;;;;9.38;2.70;;;;;;;;;;5066519;28;20028;-68
2022/08/31 01:00:09;;;;;;;7.18;2.05;;;;;;;;;;5072127;28;20031;-67
2022/08/31 01:02:34;;;;;;;7.63;2.35;;;;;;;;;;5073720;28;20380;-66
2022/08/31 01:05:00;;;;;;;6.78;2.70;;;;;;;;;;5074024;28;20024;-64
2022/08/31 01:07:26;;;;;;;8.45;2.50;;;;;;;;;;5073475;28;20107;-66
2022/08/31 01:09:51;;;;;;;4.00;2.30;;;;;;;;;;5073317;28;20024;-65
2022/08/31 01:12:16;;;;;;;6.65;2.70;;;;;;;;;;5073579;28;20460;-67
2022/08/31 01:14:42;;;;;;;4.63;2.30;;;;;;;;;;5073255;28;20040;-66
2022/08/31 01:17:08;;;;;;;9.10;2.55;;;;;;;;;;5073125;28;20022;-68
2022/08/31 01:19:52;;;;;;;5.32;2.63;;;;;;;;;;5073616;28;20103;-67
2022/08/31 01:22:27;;;;;;;5.72;2.50;;;;;;;;;;5073262;28;20017;-66
2022/08/31 01:24:53;;;;;;;5.75;2.90;;;;;;;;;;5073245;28;20110;-66
2022/08/31 01:27:21;;;;;;;4.93;3.00;;;;;;;;;;5072795;28;20024;-67
2022/08/31 01:29:46;;;;;;;5.25;2.53;;;;;;;;;;5072945;28;20506;-68
2022/08/31 01:32:11;;;;;;;3.95;2.50;;;;;;;;;;5073283;28;20104;-65
2022/08/31 01:34:36;;;;;;;6.43;2.60;;;;;;;;;;5072627;28;20465;-68
2022/08/31 01:37:02;;;;;;;5.38;2.20;;;;;;;;;;5072841;28;20027;-65
2022/08/31 01:39:27;;;;;;;4.57;2.58;;;;;;;;;;5072893;28;20104;-66
2022/08/31 01:41:52;;;;;;;4.30;2.53;;;;;;;;;;5072955;28;20036;-66
2022/08/31 01:44:20;;;;;;;9.07;2.33;;;;;;;;;;5071891;28;20267;-66
2022/08/31 01:46:45;;;;;;;11.23;2.95;;;;;;;;;;5072291;28;20029;-66
2022/08/31 01:49:11;;;;;;;5.93;2.72;;;;;;;;;;5073177;28;20079;-65
2022/08/31 01:51:36;;;;;;;6.93;3.28;;;;;;;;;;5072011;28;20027;-66
2022/08/31 01:54:02;;;;;;;5.65;2.53;;;;;;;;;;5072627;28;20426;-65
2022/08/31 01:56:31;;;;;;;4.32;2.70;;;;;;;;;;5072022;28;20020;-66
2022/08/31 01:58:57;;;;;;;11.93;3.65;;;;;;;;;;5072392;28;20035;-66
2022/08/31 02:01:24;;;;;;;6.63;2.50;;;;;;;;;;5071211;28;20028;-66
2022/08/31 02:03:49;;;;;;;6.25;3.65;;;;;;;;;;5072377;28;20028;-66
2022/08/31 02:06:14;;;;;;;9.70;4.03;;;;;;;;;;5071886;28;20376;-67
2022/08/31 02:08:40;;;;;;;8.30;4.97;;;;;;;;;;5071754;28;20290;-66
2022/08/31 02:11:05;;;;;;;11.00;3.90;;;;;;;;;;5071785;28;20338;-66
2022/08/31 02:13:31;;;;;;;5.72;3.45;;;;;;;;;;5072264;28;20719;-69
2022/08/31 02:15:56;;;;;;;10.23;3.55;;;;;;;;;;5071963;28;20025;-66
2022/08/31 02:18:21;;;;;;;6.05;3.17;;;;;;;;;;5072144;28;20111;-65
2022/08/31 02:20:47;;;;;;;5.80;3.33;;;;;;;;;;5072412;28;20028;-67
2022/08/31 02:23:12;;;;;;;6.73;3.40;;;;;;;;;;5071469;28;20079;-66
2022/08/31 02:25:37;;;;;;;6.35;3.35;;;;;;;;;;5071384;28;20016;-66
2022/08/31 02:28:03;;;;;;;8.00;3.67;;;;;;;;;;5071410;28;20381;-65
2022/08/31 02:30:28;;;;;;;9.88;3.97;;;;;;;;;;5072056;28;20472;-66
2022/08/31 02:32:53;;;;;;;5.10;3.13;;;;;;;;;;5071872;28;20027;-69
2022/08/31 02:35:18;;;;;;;6.22;3.67;;;;;;;;;;5071939;28;20035;-66
2022/08/31 02:37:43;;;;;;;5.55;3.53;;;;;;;;;;5072035;28;20020;-66
2022/08/31 02:40:09;;;;;;;7.43;3.70;;;;;;;;;;5071977;28;20028;-66
2022/08/31 02:42:35;;;;;;;6.95;3.50;;;;;;;;;;5071406;28;20305;-66
2022/08/31 02:45:00;;;;;;;9.38;3.92;;;;;;;;;;5071715;28;20372;-67
2022/08/31 02:47:29;;;;;;;5.22;3.53;;;;;;;;;;5071525;28;20118;-68
2022/08/31 02:49:54;;;;;;;8.95;4.10;;;;;;;;;;5071529;28;20257;-66
2022/08/31 02:52:19;;;;;;;4.47;3.30;;;;;;;;;;5071397;28;20025;-66
2022/08/31 02:54:44;;;;;;;11.97;3.57;;;;;;;;;;5071509;28;20615;-66
2022/08/31 02:57:09;;;;;;;14.13;3.80;;;;;;;;;;5071296;28;20278;-66
2022/08/31 02:59:34;;;;;;;10.73;3.70;;;;;;;;;;5071927;28;20301;-66
2022/08/31 03:02:00;;;;;;;4.37;3.23;;;;;;;;;;5071184;28;20028;-66
2022/08/31 03:04:25;;;;;;;10.20;3.72;;;;;;;;;;5071239;28;20013;-66
2022/08/31 03:06:50;;;;;;;6.93;3.88;;;;;;;;;;5071314;28;20095;-69
2022/08/31 03:09:15;;;;;;;11.40;4.45;;;;;;;;;;5070895;28;20020;-67
2022/08/31 03:11:41;;;;;;;8.77;4.43;;;;;;;;;;5071220;28;20016;-66
2022/08/31 03:14:06;;;;;;;7.85;4.40;;;;;;;;;;5071347;28;20715;-68
2022/08/31 03:16:31;;;;;;;8.27;4.33;;;;;;;;;;5070771;28;20107;-66
2022/08/31 03:18:57;;;;;;;12.23;4.63;;;;;;;;;;5071092;28;20415;-68
2022/08/31 03:21:22;;;;;;;7.97;4.93;;;;;;;;;;5070889;28;20255;-66
2022/08/31 03:23:47;;;;;;;11.70;4.83;;;;;;;;;;5069556;28;20055;-66
2022/08/31 03:26:12;;;;;;;8.60;4.50;;;;;;;;;;5070329;28;20308;-66
2022/08/31 03:28:38;;;;;;;7.38;4.32;;;;;;;;;;5070529;28;20024;-67
2022/08/31 03:31:07;;;;;;;9.73;4.75;;;;;;;;;;5070647;28;20077;-66
2022/08/31 03:33:32;;;;;;;7.60;4.97;;;;;;;;;;5070468;28;20020;-66
2022/08/31 03:35:58;;;;;;;9.02;4.45;;;;;;;;;;5070536;28;20029;-67
2022/08/31 03:38:23;;;;;;;8.50;4.53;;;;;;;;;;5070649;28;20020;-66
2022/08/31 03:40:49;;;;;;;13.77;5.43;;;;;;;;;;5070899;28;20098;-67
2022/08/31 03:43:15;;;;;;;9.93;6.13;;;;;;;;;;5070803;28;20468;-67
2022/08/31 03:45:41;;;;;;;8.70;4.75;;;;;;;;;;5070190;28;20031;-66
2022/08/31 03:48:06;;;;;;;8.15;4.90;;;;;;;;;;5070501;28;20530;-68
2022/08/31 03:50:32;;;;;;;8.55;4.53;;;;;;;;;;5070599;28;20124;-66
2022/08/31 03:52:57;;;;;;;10.90;4.97;;;;;;;;;;5069008;28;20024;-69
2022/08/31 03:55:23;;;;;;;20.52;6.05;;;;;;;;;;5068241;28;20029;-66
2022/08/31 03:57:48;;;;;;;15.35;5.45;;;;;;;;;;5070021;28;20028;-67
2022/08/31 04:00:14;;;;;;;10.77;5.28;;;;;;;;;;5070531;28;20024;-66
2022/08/31 04:02:40;;;;;;;8.65;6.32;;;;;;;;;;5070461;28;20078;-66
2022/08/31 04:05:06;;;;;;;9.20;5.20;;;;;;;;;;5070162;28;20020;-66
2022/08/31 04:07:31;;;;;;;10.88;5.78;;;;;;;;;;5070122;28;20036;-67
2022/08/31 04:09:56;;;;;;;13.17;5.97;;;;;;;;;;5070371;28;20021;-66
2022/08/31 04:12:21;;;;;;;15.83;5.90;;;;;;;;;;5070712;28;20313;-67
2022/08/31 04:14:46;;;;;;;9.70;5.30;;;;;;;;;;5070621;28;20012;-66
2022/08/31 04:17:12;;;;;;;11.23;5.60;;;;;;;;;;5070052;28;20890;-66
2022/08/31 04:19:40;;;;;;;9.23;5.07;;;;;;;;;;5070374;28;20319;-68
2022/08/31 04:22:05;;;;;;;13.00;5.20;;;;;;;;;;5070210;28;20016;-69
2022/08/31 04:24:31;;;;;;;11.80;6.10;;;;;;;;;;5070245;28;20032;-66
2022/08/31 04:26:56;;;;;;;9.82;5.38;;;;;;;;;;5069841;28;20034;-68
2022/08/31 04:29:22;;;;;;;9.07;5.10;;;;;;;;;;5070254;28;20028;-66
2022/08/31 04:31:47;;;;;;;7.13;5.25;;;;;;;;;;5070125;28;20342;-69
2022/08/31 04:34:12;;;;;;;8.32;5.70;;;;;;;;;;5070284;28;20119;-67
2022/08/31 04:36:38;;;;;;;10.52;5.07;;;;;;;;;;5073804;28;20047;-68
2022/08/31 04:39:04;;;;;;;8.85;5.20;;;;;;;;;;5073945;28;20486;-67
2022/08/31 04:41:30;;;;;;;8.30;5.40;;;;;;;;;;5074001;28;20024;-66
2022/08/31 04:43:56;;;;;;;10.93;5.57;;;;;;;;;;5073946;28;20165;-67
2022/08/31 04:46:22;;;;;;;10.85;5.22;;;;;;;;;;5074483;28;20024;-67
2022/08/31 04:48:47;;;;;;;11.77;6.32;;;;;;;;;;5074088;28;20588;-66
2022/08/31 04:51:14;;;;;;;20.02;6.50;;;;;;;;;;5073610;28;20027;-67
2022/08/31 04:53:40;;;;;;;9.70;6.35;;;;;;;;;;5073837;28;20100;-68
2022/08/31 04:56:13;;;;;;;11.00;6.75;;;;;;;;;;5073430;28;20040;-66
2022/08/31 04:58:42;;;;;;;10.95;5.70;;;;;;;;;;5073654;28;20028;-68
2022/08/31 05:01:08;;;;;;;10.55;5.85;;;;;;;;;;5073841;28;20020;-66
2022/08/31 05:03:33;;;;;;;15.73;6.97;;;;;;;;;;5073935;28;20024;-66
2022/08/31 05:05:59;;;;;;;14.13;6.33;;;;;;;;;;5073282;28;20495;-69
2022/08/31 05:08:24;;;;;;;11.53;6.63;;;;;;;;;;5073368;28;20289;-66
2022/08/31 05:10:49;;;;;;;12.07;6.88;;;;;;;;;;5073424;28;20247;-68
2022/08/31 05:13:14;;;;;;;9.70;5.95;;;;;;;;;;5073440;28;20449;-69
2022/08/31 05:15:41;;;;;;;12.23;6.47;;;;;;;;;;5073016;28;20396;-66
2022/08/31 05:18:06;;;;;;;10.13;6.07;;;;;;;;;;5073284;28;20292;-66
2022/08/31 05:20:32;;;;;;;10.55;6.65;;;;;;;;;;5073316;28;20465;-67
2022/08/31 05:22:57;;;;;;;10.27;7.13;;;;;;;;;;5073163;28;20031;-66
2022/08/31 05:25:22;;;;;;;11.70;6.07;;;;;;;;;;5073145;28;20259;-66
2022/08/31 05:27:47;;;;;;;11.00;6.03;;;;;;;;;;5073031;28;20739;-66
2022/08/31 05:30:12;;;;;;;9.43;6.13;;;;;;;;;;5073057;28;20259;-66
2022/08/31 05:32:37;;;;;;;10.10;6.05;;;;;;;;;;5073067;28;20243;-66
2022/08/31 05:35:03;;;;;;;11.30;6.07;;;;;;;;;;5072966;28;20104;-66
2022/08/31 05:37:28;;;;;;;14.40;6.47;;;;;;;;;;5072684;28;20259;-66
2022/08/31 05:39:53;;;;;;;11.48;6.40;;;;;;;;;;5072729;28;20021;-66
2022/08/31 05:42:19;;;;;;;14.88;6.28;;;;;;;;;;5072995;28;20024;-67
2022/08/31 05:44:45;;;;;;;11.65;6.50;;;;;;;;;;5072780;28;20036;-65
2022/08/31 05:47:10;;;;;;;13.93;7.22;;;;;;;;;;5071908;28;20028;-66
2022/08/31 05:49:35;;;;;;;13.37;7.30;;;;;;;;;;5072831;28;20027;-65
2022/08/31 05:52:01;;;;;;;17.58;6.90;;;;;;;;;;5072728;28;20255;-65
2022/08/31 05:54:27;;;;;;;15.52;6.53;;;;;;;;;;5072963;28;20021;-67
2022/08/31 05:56:52;;;;;;;10.25;6.45;;;;;;;;;;5071940;28;20081;-66
2022/08/31 05:59:18;;;;;;;10.80;6.27;;;;;;;;;;5072399;28;20039;-66
2022/08/31 06:01:44;;;;;;;10.25;6.47;;;;;;;;;;5072437;28;20404;-65
2022/08/31 06:04:09;;;;;;;10.70;7.10;;;;;;;;;;5072239;28;20796;-66
2022/08/31 06:06:35;;;;;;;13.05;7.60;;;;;;;;;;5072204;28;20428;-66
2022/08/31 06:09:01;;;;;;;15.95;7.38;;;;;;;;;;5072070;28;20465;-67
2022/08/31 06:11:28;;;;;;;14.52;6.70;;;;;;;;;;5072287;28;20028;-68
2022/08/31 06:13:54;;;;;;;13.82;7.25;;;;;;;;;;5072376;28;20578;-66
2022/08/31 06:16:21;;;;;;;13.88;7.07;;;;;;;;;;5053886;28;20048;-66
2022/08/31 06:18:52;;;;;;;11.20;6.25;;;;;;;;;;5072286;28;20016;-67
2022/08/31 06:21:19;;;;;;;11.52;6.60;;;;;;;;;;5071970;28;20035;-67
2022/08/31 06:23:45;;;;;;;8.82;6.00;;;;;;;;;;5072196;28;20095;-66
2022/08/31 06:26:14;;;;;;;10.05;6.55;;;;;;;;;;5071387;28;20111;-67
2022/08/31 06:28:40;;;;;;;11.15;6.47;;;;;;;;;;5071898;28;20050;-67
2022/08/31 06:31:10;;;;;;;12.85;6.63;;;;;;;;;;5071842;28;20488;-66
2022/08/31 06:33:36;;;;;;;10.05;6.20;;;;;;;;;;5053892;28;20013;-68
2022/08/31 06:36:01;;;;;;;10.98;6.32;;;;;;;;;;5071695;28;20009;-70
2022/08/31 06:38:27;;;;;;;10.70;6.10;;;;;;;;;;5072139;28;20042;-66
2022/08/31 06:40:52;;;;;;;13.10;6.53;;;;;;;;;;5071783;28;20031;-69
2022/08/31 06:43:17;;;;;;;8.82;5.88;;;;;;;;;;5071686;28;20016;-67
2022/08/31 06:45:43;;;;;;;10.73;5.38;;;;;;;;;;5071647;28;20388;-66
2022/08/31 06:48:08;;;;;;;7.82;4.97;;;;;;;;;;5071417;28;20024;-68
2022/08/31 06:50:33;;;;;;;9.07;4.53;;;;;;;;;;5071533;28;20017;-67
2022/08/31 06:52:58;;;;;;;6.53;4.43;;;;;;;;;;5071438;28;20021;-67
2022/08/31 06:55:24;;;;;;;10.73;4.20;;;;;;;;;;5071263;28;20028;-66
2022/08/31 06:57:49;;;;;;;6.18;4.13;;;;;;;;;;5070400;28;20111;-65
2022/08/31 07:00:14;;;;;;;8.45;4.43;;;;;;;;;;5071409;28;20435;-66
2022/08/31 07:02:39;;;;;;;7.35;4.28;;;;;;;;;;5071235;28;20017;-67
2022/08/31 07:05:05;;;;;;;7.50;4.50;;;;;;;;;;5070921;28;20039;-68
2022/08/31 07:07:30;;;;;;;7.53;4.32;;;;;;;;;;5070832;28;20259;-67
2022/08/31 07:09:55;;;;;;;7.07;4.25;;;;;;;;;;5071119;28;20036;-65
2022/08/31 07:12:21;;;;;;;8.27;4.18;;;;;;;;;;5071088;28;20013;-69
2022/08/31 07:14:46;;;;;;;7.30;3.53;;;;;;;;;;5071141;28;20019;-67
2022/08/31 07:17:11;;;;;;;7.03;3.93;;;;;;;;;;5070702;28;20261;-65
2022/08/31 07:19:36;;;;;;;8.13;4.33;;;;;;;;;;5070979;28;20054;-65
2022/08/31 07:22:03;;;;;;;4.40;3.30;;;;;;;;;;5070883;28;20267;-66
2022/08/31 07:24:29;;;;;;;6.93;4.03;;;;;;;;;;5071134;28;20417;-66
2022/08/31 07:26:56;;;;;;;10.95;3.92;;;;;;;;;;5070602;28;20368;-66
2022/08/31 07:29:22;;;;;;;6.60;4.22;;;;;;;;;;5071012;28;20078;-68
2022/08/31 07:31:49;;;;;;;7.43;4.25;;;;;;;;;;5070758;28;20025;-68
2022/08/31 07:34:24;;;;;;;6.95;3.70;;;;;;;;;;5070700;28;20054;-66
2022/08/31 07:42:21;;;;;;;7.13;3.80;;;;;;;;;;5070727;28;20047;-66
2022/08/31 07:44:47;;;;;;;7.97;4.10;;;;;;;;;;5070513;28;20023;-68
2022/08/31 07:47:13;;;;;;;6.75;3.97;;;;;;;;;;5070228;28;20084;-66
2022/08/31 07:49:46;;;;;;;4.83;3.90;;;;;;;;;;5070330;28;20048;-65
2022/08/31 07:52:11;;;;;;;11.30;3.97;;;;;;;;;;5070689;28;20695;-67
2022/08/31 07:54:38;;;;;;;14.75;3.90;;;;;;;;;;5070531;28;20028;-65
2022/08/31 07:57:03;;;;;;;6.13;3.80;;;;;;;;;;5069725;28;20547;-65
2022/08/31 07:59:30;;;;;;;9.88;4.60;;;;;;;;;;5070572;28;20032;-66
2022/08/31 08:01:55;;;;;;;10.02;3.75;;;;;;;;;;5070132;28;20028;-66
2022/08/31 08:04:24;;;;;;;14.73;4.20;;;;;;;;;;5070570;28;20029;-67
2022/08/31 08:06:50;;;;;;;9.50;4.20;;;;;;;;;;5070013;28;20338;-66
2022/08/31 08:09:15;;;;;;;5.93;3.70;;;;;;;;;;5070013;28;20519;-66
2022/08/31 08:11:43;;;;;;;7.57;3.47;;;;;;;;;;5070623;28;20044;-65
2022/08/31 08:14:08;;;;;;;7.82;3.47;;;;;;;;;;5070421;28;20497;-65
2022/08/31 08:16:34;;;;;;;12.00;3.90;;;;;;;;;;5069505;28;20024;-65
2022/08/31 08:18:59;;;;;;;10.73;3.70;;;;;;;;;;5070593;28;20025;-66
2022/08/31 08:21:24;;;;;;;12.33;4.30;;;;;;;;;;5070490;28;20121;-65
2022/08/31 08:23:50;;;;;;;10.35;3.80;;;;;;;;;;5070299;28;20251;-69
2022/08/31 08:26:15;;;;;;;6.70;3.53;;;;;;;;;;5070256;28;20093;-67
2022/08/31 08:28:40;;;;;;;6.60;3.67;;;;;;;;;;5070215;28;20468;-68
2022/08/31 08:31:09;;;;;;;10.00;3.63;;;;;;;;;;5070440;28;20321;-66
2022/08/31 08:33:34;;;;;;;6.20;3.90;;;;;;;;;;5070214;28;20296;-69
2022/08/31 08:36:01;;;;;;;11.02;3.33;;;;;;;;;;5070052;28;20492;-67
2022/08/31 08:38:30;;;;;;;9.50;2.97;;;;;;;;;;5070232;28;20393;-69
2022/08/31 08:40:57;;;;;;;4.93;3.05;;;;;;;;;;5070251;28;20028;-65
2022/08/31 08:43:24;;;;;;;11.15;3.97;;;;;;;;;;5070211;28;20468;-68
2022/08/31 08:45:51;;;;;;;8.95;2.85;;;;;;;;;;5069725;28;20025;-68
2022/08/31 08:48:20;;;;;;;9.23;3.53;;;;;;;;;;5069883;28;20024;-67
2022/08/31 08:50:45;;;;;;;8.13;3.38;;;;;;;;;;5070193;28;20077;-66
2022/08/31 08:53:11;;;;;;;8.87;4.07;;;;;;;;;;5070000;28;20107;-67
2022/08/31 08:55:38;;;;;;;10.48;3.42;;;;;;;;;;5069905;28;20659;-69
2022/08/31 08:58:04;;;;;;;5.45;3.60;;;;;;;;;;5069638;28;20020;-66
2022/08/31 09:00:30;;;;;;;6.28;3.40;;;;;;;;;;5070120;28;20016;-66
2022/08/31 09:03:02;;;;;;;6.38;3.83;;;;;;;;;;5069820;28;20484;-67
2022/08/31 09:05:34;;;;;;;10.45;3.67;;;;;;;;;;5069888;28;20013;-67
2022/08/31 09:08:15;;;;;;;11.57;3.50;;;;;;;;;;5069670;28;20029;-68
2022/08/31 09:10:40;;;;;;;7.65;3.90;;;;;;;;;;5068660;28;20040;-66
2022/08/31 09:13:11;;;;;;;6.55;3.53;;;;;;;;;;5069594;28;20103;-66
2022/08/31 09:15:40;;;;;;;6.80;3.53;;;;;;;;;;5069606;28;20021;-66
2022/08/31 09:18:14;;;;;;;7.70;2.97;;;;;;;;;;5051865;28;20016;-66
2022/08/31 09:20:40;;;;;;;5.43;3.45;;;;;;;;;;5071087;28;20019;-67
2022/08/31 09:23:06;;;;;;;8.50;4.18;;;;;;;;;;5073675;28;20074;-66
2022/08/31 09:25:52;;;;;;;5.80;3.40;;;;;;;;;;5073263;28;20064;-67
2022/08/31 09:28:34;;;;;;;8.30;4.05;;;;;;;;;;5073002;28;20047;-68
2022/08/31 09:30:59;;;;;;;9.63;3.65;;;;;;;;;;5073161;28;20024;-66
2022/08/31 09:33:26;;;;;;;10.35;3.88;;;;;;;;;;5073496;28;20085;-66
2022/08/31 09:35:56;;;;;;;7.60;3.17;;;;;;;;;;5072866;28;20026;-68
2022/08/31 09:38:26;;;;;;;5.28;3.60;;;;;;;;;;5073205;28;20017;-67
2022/08/31 09:40:51;;;;;;;7.03;3.50;;;;;;;;;;5073157;28;20016;-67
2022/08/31 09:43:23;;;;;;;6.63;3.10;;;;;;;;;;5072971;28;20013;-67
2022/08/31 09:45:53;;;;;;;6.95;3.38;;;;;;;;;;5072751;28;20356;-67
2022/08/31 09:48:38;;;;;;;8.68;4.18;;;;;;;;;;5072921;28;20112;-70
2022/08/31 09:51:04;;;;;;;9.38;4.05;;;;;;;;;;5073115;28;20096;-67
2022/08/31 09:56:22;;;;;;;6.68;3.20;;;;;;;;;;5072285;28;20024;-70
2022/08/31 09:58:56;;;;;;;7.22;3.33;;;;;;;;;;5073131;28;20672;-69
2022/08/31 10:01:28;;;;;;;7.15;3.80;;;;;;;;;;5072753;28;20043;-68
2022/08/31 10:04:13;;;;;;;9.23;3.88;;;;;;;;;;5072761;28;20364;-67
2022/08/31 10:07:02;;;;;;;8.00;3.83;;;;;;;;;;5072208;28;20024;-67
2022/08/31 10:09:35;;;;;;;4.25;3.38;;;;;;;;;;5072544;28;20019;-67
2022/08/31 10:12:07;;;;;;;7.65;3.88;;;;;;;;;;5072585;28;20523;-68
2022/08/31 10:14:40;;;;;;;4.68;2.90;;;;;;;;;;5072176;28;20119;-66
2022/08/31 10:17:13;;;;;;;7.72;3.95;;;;;;;;;;5072443;28;20020;-67
2022/08/31 10:19:47;;;;;;;7.60;4.55;;;;;;;;;;5072173;28;20567;-67
2022/08/31 10:22:24;;;;;;;6.43;3.88;;;;;;;;;;5072458;28;20034;-66
2022/08/31 10:25:11;;;;;;;7.38;4.50;;;;;;;;;;5072250;28;20025;-67
2022/08/31 10:27:43;;;;;;;8.38;5.20;;;;;;;;;;5071918;28;20469;-66
2022/08/31 10:30:20;;;;;;;11.20;4.68;;;;;;;;;;5072139;28;20050;-66
2022/08/31 10:32:51;;;;;;;10.05;4.35;;;;;;;;;;5071871;28;20024;-68
2022/08/31 10:35:19;;;;;;;16.25;4.70;;;;;;;;;;5072111;28;20013;-66
2022/08/31 10:38:07;;;;;;;9.45;3.80;;;;;;;;;;5072020;28;20037;-68
2022/08/31 10:40:37;;;;;;;9.50;3.97;;;;;;;;;;5072145;28;20090;-70
2022/08/31 10:43:08;;;;;;;10.63;4.65;;;;;;;;;;5072086;28;20036;-69
2022/08/31 10:45:39;;;;;;;12.07;4.43;;;;;;;;;;5071378;28;20100;-67
2022/08/31 10:48:05;;;;;;;9.13;5.00;;;;;;;;;;5071771;28;20028;-67
2022/08/31 10:50:48;;;;;;;8.98;5.22;;;;;;;;;;5071677;28;20016;-68
2022/08/31 10:53:39;;;;;;;6.85;4.55;;;;;;;;;;5071735;28;20016;-67
2022/08/31 10:56:17;;;;;;;6.05;3.50;;;;;;;;;;5071368;28;20650;-67
2022/08/31 10:58:42;;;;;;;9.15;3.88;;;;;;;;;;5071220;28;20038;-66
2022/08/31 11:01:16;;;;;;;10.27;4.22;;;;;;;;;;5071971;28;20025;-67
2022/08/31 11:04:00;;;;;;;6.15;3.35;;;;;;;;;;5071159;28;20059;-66
2022/08/31 11:06:34;;;;;;;6.47;4.13;;;;;;;;;;5070883;28;20154;-69
2022/08/31 11:09:18;;;;;;;4.70;2.58;;;;;;;;;;5071453;28;20032;-69
2022/08/31 11:11:56;;;;;;;12.23;3.80;;;;;;;;;;5071329;28;20016;-67
2022/08/31 11:14:48;;;;;;;4.30;1.90;;;;;;;;;;5071203;28;20020;-67
2022/08/31 11:17:17;;;;;;;15.65;5.53;;;;;;;;;;5071081;28;20029;-68
2022/08/31 11:20:02;;;;;;;6.82;3.65;;;;;;;;;;5071197;28;20177;-66
2022/08/31 11:22:39;;;;;;;6.65;3.75;;;;;;;;;;5071045;28;20600;-69
2022/08/31 11:25:23;;;;;;;5.63;3.80;;;;;;;;;;5071296;28;20028;-66
2022/08/31 11:28:12;;;;;;;7.95;4.00;;;;;;;;;;5053397;28;20016;-66
2022/08/31 11:30:41;;;;;;;7.20;3.70;;;;;;;;;;5042034;28;20037;-66
2022/08/31 11:33:15;;;;;;;8.27;4.25;;;;;;;;;;5071222;28;20040;-66
2022/08/31 11:35:46;;;;;;;8.63;3.53;;;;;;;;;;5070672;28;20028;-69
2022/08/31 11:38:34;;;;;;;6.22;3.28;;;;;;;;;;5070978;28;20368;-67
2022/08/31 11:41:01;;;;;;;4.88;3.38;;;;;;;;;;5070739;28;20537;-67
2022/08/31 11:43:29;;;;;;;6.65;3.50;;;;;;;;;;5070273;28;20541;-67
2022/08/31 11:45:55;;;;;;;11.10;4.10;;;;;;;;;;5070531;28;20017;-67
2022/08/31 11:48:48;;;;;;;7.07;3.35;;;;;;;;;;5070573;28;20095;-67
2022/08/31 11:51:28;;;;;;;6.90;3.80;;;;;;;;;;5064235;28;20402;-67
2022/08/31 11:53:54;;;;;;;;;;;;;;;;;;5071224;28;20052;-67
2022/08/31 11:56:31;;;;;;;4.18;3.30;;;;;;;;;;5070275;28;19936;-67
2022/08/31 11:59:16;;;;;;;5.18;3.58;;;;;;;;;;5070494;28;20024;-67
2022/08/31 12:01:43;;;;;;;8.13;3.25;;;;;;;;;;5070240;28;20047;-67
2022/08/31 12:04:28;;;;;;;4.28;3.05;;;;;;;;;;5070423;28;20036;-67
2022/08/31 12:06:56;;;;;;;7.97;2.35;;;;;;;;;;5070085;28;20034;-68
2022/08/31 12:09:22;;;;;;;4.35;2.65;;;;;;;;;;5070331;28;20024;-67
2022/08/31 12:11:53;;;;;;;4.97;2.97;;;;;;;;;;5070582;28;20077;-66
2022/08/31 12:14:46;;;;;;;5.90;3.05;;;;;;;;;;5070736;28;20020;-67
2022/08/31 12:17:20;;;;;;;8.57;2.90;;;;;;;;;;5063598;28;20063;-67
2022/08/31 12:20:00;;;;;;;8.95;3.10;;;;;;;;;;5070333;28;20492;-67
2022/08/31 12:25:58;;;;;;;11.25;3.42;;;;;;;;;;5053972;28;20090;-67
2022/08/31 12:28:28;;;;;;;7.05;2.92;;;;;;;;;;5069277;28;20063;-67
2022/08/31 12:30:53;;;;;;;;;;;;;;;;;;5069444;28;20056;-68
2022/08/31 12:33:23;;;;;;;5.22;3.35;;;;;;;;;;5070242;28;19938;-67
2022/08/31 12:35:51;;;;;;;6.93;3.17;;;;;;;;;;5069948;28;20048;-67
2022/08/31 12:38:21;;;;;;;16.75;3.30;;;;;;;;;;5070018;28;20020;-67
2022/08/31 12:40:48;;;;;;;3.72;2.30;;;;;;;;;;5070168;28;20506;-67
2022/08/31 12:43:22;;;;;;;4.22;3.03;;;;;;;;;;5070130;28;20493;-67
2022/08/31 12:46:05;;;;;;;5.75;2.90;;;;;;;;;;5069736;28;20032;-67
2022/08/31 12:48:39;;;;;;;4.85;2.95;;;;;;;;;;5051765;28;20027;-68
2022/08/31 12:51:31;;;;;;;4.60;3.47;;;;;;;;;;5070056;28;20430;-67
2022/08/31 12:54:12;;;;;;;7.43;3.17;;;;;;;;;;5070294;28;20012;-67
2022/08/31 12:56:37;;;;;;;6.15;3.60;;;;;;;;;;5071946;28;20024;-67
2022/08/31 12:59:21;;;;;;;5.60;2.60;;;;;;;;;;5074204;28;20051;-67
2022/08/31 13:01:48;;;;;;;13.75;3.10;;;;;;;;;;5073808;28;20297;-67
2022/08/31 13:04:14;;;;;;;6.13;3.05;;;;;;;;;;5073807;28;20055;-68
2022/08/31 13:06:43;;;;;;;3.70;2.85;;;;;;;;;;5073251;28;20504;-68
2022/08/31 13:09:21;;;;;;;5.97;2.85;;;;;;;;;;5073672;28;20522;-67
2022/08/31 13:11:49;;;;;;;5.00;3.22;;;;;;;;;;5073479;28;20032;-67
2022/08/31 13:14:17;;;;;;;7.13;3.30;;;;;;;;;;5073507;28;20028;-67
2022/08/31 13:16:46;;;;;;;12.05;3.70;;;;;;;;;;5072997;28;20029;-67
2022/08/31 13:19:24;;;;;;;9.73;3.67;;;;;;;;;;5073433;28;20032;-68
2022/08/31 13:22:03;;;;;;;5.22;3.30;;;;;;;;;;5055213;28;20432;-67
2022/08/31 13:24:30;;;;;;;5.22;2.63;;;;;;;;;;5073313;28;20096;-67
2022/08/31 13:27:22;;;;;;;5.10;3.17;;;;;;;;;;5054895;28;20028;-67
2022/08/31 13:29:48;;;;;;;4.85;3.00;;;;;;;;;;5069924;28;20051;-67
2022/08/31 13:32:29;;;;;;;8.82;3.10;;;;;;;;;;5073044;28;20107;-67
2022/08/31 13:34:54;;;;;;;4.13;2.70;;;;;;;;;;5073190;28;20017;-67
2022/08/31 13:37:22;;;;;;;5.53;2.95;;;;;;;;;;5072816;28;20099;-67
2022/08/31 13:39:47;;;;;;;8.10;3.15;;;;;;;;;;5073144;28;20032;-66
2022/08/31 13:42:18;;;;;;;5.72;3.17;;;;;;;;;;5073175;28;20473;-67
2022/08/31 13:44:45;;;;;;;4.95;3.08;;;;;;;;;;5073093;28;20032;-66
2022/08/31 13:47:28;;;;;;;6.18;2.80;;;;;;;;;;5072826;28;20039;-68
2022/08/31 13:50:11;;;;;;;10.50;2.78;;;;;;;;;;5072931;28;20093;-67
2022/08/31 13:52:38;;;;;;;7.25;3.15;;;;;;;;;;5072741;28;20023;-68
2022/08/31 13:55:05;;;;;;;7.60;2.70;;;;;;;;;;5072844;28;20035;-69
2022/08/31 13:57:34;;;;;;;4.93;2.80;;;;;;;;;;5072252;28;20032;-67
2022/08/31 14:00:18;;;;;;;8.27;2.97;;;;;;;;;;5072691;28;20562;-67
2022/08/31 14:02:44;;;;;;;7.15;3.30;;;;;;;;;;5072546;28;20039;-67
2022/08/31 14:05:11;;;;;;;6.07;2.50;;;;;;;;;;5072599;28;20103;-67
2022/08/31 14:07:42;;;;;;;3.47;2.75;;;;;;;;;;5071797;28;20024;-67
2022/08/31 14:10:20;;;;;;;3.63;2.25;;;;;;;;;;5072589;28;20025;-67
2022/08/31 14:12:53;;;;;;;7.45;2.67;;;;;;;;;;5072398;28;20476;-67
2022/08/31 14:15:36;;;;;;;4.85;2.70;;;;;;;;;;5072151;28;20013;-67
2022/08/31 14:18:16;;;;;;;5.53;2.22;;;;;;;;;;5072313;28;20027;-67
2022/08/31 14:20:43;;;;;;;7.13;2.50;;;;;;;;;;5072143;28;20147;-67
2022/08/31 14:23:26;;;;;;;4.75;2.80;;;;;;;;;;5072425;28;20029;-68
2022/08/31 14:25:53;;;;;;;4.32;2.53;;;;;;;;;;5071774;28;20020;-67
2022/08/31 14:28:22;;;;;;;6.47;2.67;;;;;;;;;;5072203;28;20158;-69
2022/08/31 14:30:48;;;;;;;5.43;2.42;;;;;;;;;;5072429;28;20051;-67
2022/08/31 14:33:16;;;;;;;6.03;2.22;;;;;;;;;;5072362;28;20492;-67
2022/08/31 14:35:44;;;;;;;3.28;2.20;;;;;;;;;;5071795;28;20036;-67
2022/08/31 14:38:13;;;;;;;5.88;2.40;;;;;;;;;;5071914;28;20465;-67
2022/08/31 14:40:39;;;;;;;3.60;2.47;;;;;;;;;;5071834;28;20382;-68
2022/08/31 14:43:04;;;;;;;7.00;2.92;;;;;;;;;;5071616;28;20250;-68
2022/08/31 14:45:30;;;;;;;4.50;2.43;;;;;;;;;;5071622;28;20440;-68
2022/08/31 14:47:57;;;;;;;5.80;2.60;;;;;;;;;;5071781;28;20104;-67
2022/08/31 14:50:24;;;;;;;3.40;2.15;;;;;;;;;;5071383;28;20271;-68
2022/08/31 14:52:56;;;;;;;6.15;2.38;;;;;;;;;;5071878;28;20028;-68
2022/08/31 14:55:23;;;;;;;7.07;2.00;;;;;;;;;;5071454;28;20380;-68
2022/08/31 14:57:54;;;;;;;4.10;2.20;;;;;;;;;;5071361;28;20028;-68
2022/08/31 15:00:21;;;;;;;5.05;2.92;;;;;;;;;;5071642;28;20055;-68
2022/08/31 15:02:47;;;;;;;5.38;2.50;;;;;;;;;;5071297;28;20024;-68
2022/08/31 15:05:13;;;;;;;4.47;2.00;;;;;;;;;;5071349;28;20043;-67